sensor_id;sensor_type;location;lat;lon;timestamp;temperature;humidity
65404;DHT22;52014;52.088;5.096;2022-11-14T00:01:33;8.20;99.90
65404;DHT22;52014;52.088;5.096;2022-11-14T00:03:58;8.20;99.90
65404;DHT22;52014;52.088;5.096;2022-11-14T00:06:24;8.20;99.90
65404;DHT22;52014;52.088;5.096;2022-11-14T00:08:49;8.20;99.90
65404;DHT22;52014;52.088;5.096;2022-11-14T00:11:15;8.20;99.90
65404;DHT22;52014;52.088;5.096;2022-11-14T00:13:40;8.10;99.90
65404;DHT22;52014;52.088;5.096;2022-11-14T00:16:06;8.00;99.90
65404;DHT22;52014;52.088;5.096;2022-11-14T00:18:31;8.00;99.90
65404;DHT22;52014;52.088;5.096;2022-11-14T00:20:56;8.00;99.90
65404;DHT22;52014;52.088;5.096;2022-11-14T00:23:22;8.00;99.90
65404;DHT22;52014;52.088;5.096;2022-11-14T00:25:47;8.00;99.90
65404;DHT22;52014;52.088;5.096;2022-11-14T00:28:13;8.00;99.90
65404;DHT22;52014;52.088;5.096;2022-11-14T00:30:38;8.00;99.90
65404;DHT22;52014;52.088;5.096;2022-11-14T00:33:04;8.00;99.90
65404;DHT22;52014;52.088;5.096;2022-11-14T00:35:29;7.90;99.90
65404;DHT22;52014;52.088;5.096;2022-11-14T00:37:55;7.90;99.90
65404;DHT22;52014;52.088;5.096;2022-11-14T00:40:20;7.90;99.90
65404;DHT22;52014;52.088;5.096;2022-11-14T00:42:45;7.90;99.90
65404;DHT22;52014;52.088;5.096;2022-11-14T00:45:11;7.90;99.90
65404;DHT22;52014;52.088;5.096;2022-11-14T00:47:36;7.80;99.90
65404;DHT22;52014;52.088;5.096;2022-11-14T00:50:02;7.90;99.90
65404;DHT22;52014;52.088;5.096;2022-11-14T00:52:28;7.90;99.90
65404;DHT22;52014;52.088;5.096;2022-11-14T00:54:53;7.90;99.90
65404;DHT22;52014;52.088;5.096;2022-11-14T00:57:19;7.80;99.90
65404;DHT22;52014;52.088;5.096;2022-11-14T00:59:44;7.70;99.90
65404;DHT22;52014;52.088;5.096;2022-11-14T01:02:10;7.60;99.90
65404;DHT22;52014;52.088;5.096;2022-11-14T01:04:35;7.50;99.90
65404;DHT22;52014;52.088;5.096;2022-11-14T01:07:00;7.60;99.90
65404;DHT22;52014;52.088;5.096;2022-11-14T01:09:26;7.70;99.90
65404;DHT22;52014;52.088;5.096;2022-11-14T01:11:51;7.70;99.90
65404;DHT22;52014;52.088;5.096;2022-11-14T01:14:17;7.60;99.90
65404;DHT22;52014;52.088;5.096;2022-11-14T01:16:42;7.60;99.90
65404;DHT22;52014;52.088;5.096;2022-11-14T01:19:08;7.50;99.90
65404;DHT22;52014;52.088;5.096;2022-11-14T01:21:33;7.40;99.90
65404;DHT22;52014;52.088;5.096;2022-11-14T01:23:59;7.50;99.90
65404;DHT22;52014;52.088;5.096;2022-11-14T01:26:24;7.50;99.90
65404;DHT22;52014;52.088;5.096;2022-11-14T01:28:50;7.50;99.90
65404;DHT22;52014;52.088;5.096;2022-11-14T01:31:16;7.40;99.90
65404;DHT22;52014;52.088;5.096;2022-11-14T01:33:42;7.40;99.90
65404;DHT22;52014;52.088;5.096;2022-11-14T01:36:08;7.30;99.90
65404;DHT22;52014;52.088;5.096;2022-11-14T01:38:34;7.20;99.90
65404;DHT22;52014;52.088;5.096;2022-11-14T01:41:00;7.40;99.90
65404;DHT22;52014;52.088;5.096;2022-11-14T01:43:27;7.40;99.90
65404;DHT22;52014;52.088;5.096;2022-11-14T01:46:00;7.30;99.90
65404;DHT22;52014;52.088;5.096;2022-11-14T01:48:30;7.40;99.90
65404;DHT22;52014;52.088;5.096;2022-11-14T01:50:57;7.30;99.90
65404;DHT22;52014;52.088;5.096;2022-11-14T01:53:24;7.30;99.90
65404;DHT22;52014;52.088;5.096;2022-11-14T01:55:50;7.30;99.90
65404;DHT22;52014;52.088;5.096;2022-11-14T01:58:16;7.30;99.90
65404;DHT22;52014;52.088;5.096;2022-11-14T02:00:42;7.30;99.90
65404;DHT22;52014;52.088;5.096;2022-11-14T02:03:09;7.30;99.90
65404;DHT22;52014;52.088;5.096;2022-11-14T02:05:35;7.30;99.90
65404;DHT22;52014;52.088;5.096;2022-11-14T02:08:01;7.30;99.90
65404;DHT22;52014;52.088;5.096;2022-11-14T02:10:27;7.20;99.90
65404;DHT22;52014;52.088;5.096;2022-11-14T02:12:52;7.20;99.90
65404;DHT22;52014;52.088;5.096;2022-11-14T02:15:18;7.30;99.90
65404;DHT22;52014;52.088;5.096;2022-11-14T02:17:43;7.30;99.90
65404;DHT22;52014;52.088;5.096;2022-11-14T02:22:35;7.20;99.90
65404;DHT22;52014;52.088;5.096;2022-11-14T02:25:01;7.10;99.90
65404;DHT22;52014;52.088;5.096;2022-11-14T02:27:26;7.10;99.90
65404;DHT22;52014;52.088;5.096;2022-11-14T02:29:52;7.10;99.90
65404;DHT22;52014;52.088;5.096;2022-11-14T02:32:17;7.10;99.90
65404;DHT22;52014;52.088;5.096;2022-11-14T02:34:43;7.00;99.90
65404;DHT22;52014;52.088;5.096;2022-11-14T02:37:08;7.00;99.90
65404;DHT22;52014;52.088;5.096;2022-11-14T02:39:34;7.00;99.90
65404;DHT22;52014;52.088;5.096;2022-11-14T02:41:59;7.00;99.90
65404;DHT22;52014;52.088;5.096;2022-11-14T02:44:25;7.00;99.90
65404;DHT22;52014;52.088;5.096;2022-11-14T02:46:50;7.00;99.90
65404;DHT22;52014;52.088;5.096;2022-11-14T02:49:16;6.90;99.90
65404;DHT22;52014;52.088;5.096;2022-11-14T02:51:41;7.00;99.90
65404;DHT22;52014;52.088;5.096;2022-11-14T02:54:07;6.90;99.90
65404;DHT22;52014;52.088;5.096;2022-11-14T02:56:32;6.90;99.90
65404;DHT22;52014;52.088;5.096;2022-11-14T02:58:58;6.80;99.90
65404;DHT22;52014;52.088;5.096;2022-11-14T03:01:23;6.80;99.90
65404;DHT22;52014;52.088;5.096;2022-11-14T03:03:48;6.80;99.90
65404;DHT22;52014;52.088;5.096;2022-11-14T03:06:14;6.70;99.90
65404;DHT22;52014;52.088;5.096;2022-11-14T03:08:39;6.80;99.90
65404;DHT22;52014;52.088;5.096;2022-11-14T03:11:06;6.70;99.90
65404;DHT22;52014;52.088;5.096;2022-11-14T03:13:31;6.70;99.90
65404;DHT22;52014;52.088;5.096;2022-11-14T03:15:57;6.70;99.90
65404;DHT22;52014;52.088;5.096;2022-11-14T03:18:28;6.70;99.90
65404;DHT22;52014;52.088;5.096;2022-11-14T03:20:54;6.70;99.90
65404;DHT22;52014;52.088;5.096;2022-11-14T03:23:19;6.60;99.90
65404;DHT22;52014;52.088;5.096;2022-11-14T03:25:45;6.70;99.90
65404;DHT22;52014;52.088;5.096;2022-11-14T03:28:10;6.60;99.90
65404;DHT22;52014;52.088;5.096;2022-11-14T03:30:35;6.60;99.90
65404;DHT22;52014;52.088;5.096;2022-11-14T03:33:01;6.50;99.90
65404;DHT22;52014;52.088;5.096;2022-11-14T03:35:26;6.50;99.90
65404;DHT22;52014;52.088;5.096;2022-11-14T03:37:52;6.40;99.90
65404;DHT22;52014;52.088;5.096;2022-11-14T03:40:17;6.30;99.90
65404;DHT22;52014;52.088;5.096;2022-11-14T03:42:43;6.30;99.90
65404;DHT22;52014;52.088;5.096;2022-11-14T03:45:08;6.40;99.90
65404;DHT22;52014;52.088;5.096;2022-11-14T03:47:34;6.50;99.90
65404;DHT22;52014;52.088;5.096;2022-11-14T03:49:59;6.40;99.90
65404;DHT22;52014;52.088;5.096;2022-11-14T03:52:25;6.40;99.90
65404;DHT22;52014;52.088;5.096;2022-11-14T03:54:50;6.40;99.90
65404;DHT22;52014;52.088;5.096;2022-11-14T03:57:16;6.40;99.90
65404;DHT22;52014;52.088;5.096;2022-11-14T03:59:41;6.50;99.90
65404;DHT22;52014;52.088;5.096;2022-11-14T04:02:07;6.40;99.90
65404;DHT22;52014;52.088;5.096;2022-11-14T04:04:33;6.40;99.90
65404;DHT22;52014;52.088;5.096;2022-11-14T04:06:58;6.40;99.90
65404;DHT22;52014;52.088;5.096;2022-11-14T04:09:24;6.40;99.90
65404;DHT22;52014;52.088;5.096;2022-11-14T04:11:49;6.30;99.90
65404;DHT22;52014;52.088;5.096;2022-11-14T04:14:15;6.30;99.90
65404;DHT22;52014;52.088;5.096;2022-11-14T04:16:40;6.30;99.90
65404;DHT22;52014;52.088;5.096;2022-11-14T04:19:06;6.10;99.90
65404;DHT22;52014;52.088;5.096;2022-11-14T04:21:31;6.10;99.90
65404;DHT22;52014;52.088;5.096;2022-11-14T04:23:57;6.10;99.90
65404;DHT22;52014;52.088;5.096;2022-11-14T04:26:22;6.20;99.90
65404;DHT22;52014;52.088;5.096;2022-11-14T04:28:47;6.30;99.90
65404;DHT22;52014;52.088;5.096;2022-11-14T04:31:13;6.30;99.90
65404;DHT22;52014;52.088;5.096;2022-11-14T04:33:38;6.30;99.90
65404;DHT22;52014;52.088;5.096;2022-11-14T04:36:04;6.30;99.90
65404;DHT22;52014;52.088;5.096;2022-11-14T04:38:29;6.20;99.90
65404;DHT22;52014;52.088;5.096;2022-11-14T04:40:55;6.30;99.90
65404;DHT22;52014;52.088;5.096;2022-11-14T04:43:20;6.30;99.90
65404;DHT22;52014;52.088;5.096;2022-11-14T04:45:46;6.20;99.90
65404;DHT22;52014;52.088;5.096;2022-11-14T04:48:12;6.30;99.90
65404;DHT22;52014;52.088;5.096;2022-11-14T04:50:38;6.30;99.90
65404;DHT22;52014;52.088;5.096;2022-11-14T04:53:03;6.10;99.90
65404;DHT22;52014;52.088;5.096;2022-11-14T04:55:29;6.00;99.90
65404;DHT22;52014;52.088;5.096;2022-11-14T04:57:54;6.10;99.90
65404;DHT22;52014;52.088;5.096;2022-11-14T05:00:20;6.20;99.90
65404;DHT22;52014;52.088;5.096;2022-11-14T05:02:46;6.10;99.90
65404;DHT22;52014;52.088;5.096;2022-11-14T05:05:11;6.10;99.90
65404;DHT22;52014;52.088;5.096;2022-11-14T05:07:37;5.90;99.90
65404;DHT22;52014;52.088;5.096;2022-11-14T05:10:02;6.10;99.90
65404;DHT22;52014;52.088;5.096;2022-11-14T05:12:28;6.10;99.90
65404;DHT22;52014;52.088;5.096;2022-11-14T05:14:53;6.20;99.90
65404;DHT22;52014;52.088;5.096;2022-11-14T05:17:19;6.20;99.90
65404;DHT22;52014;52.088;5.096;2022-11-14T05:19:44;6.20;99.90
65404;DHT22;52014;52.088;5.096;2022-11-14T05:22:10;6.10;99.90
65404;DHT22;52014;52.088;5.096;2022-11-14T05:24:35;6.10;99.90
65404;DHT22;52014;52.088;5.096;2022-11-14T05:27:01;6.20;99.90
65404;DHT22;52014;52.088;5.096;2022-11-14T05:29:26;6.10;99.90
65404;DHT22;52014;52.088;5.096;2022-11-14T05:31:52;6.10;99.90
65404;DHT22;52014;52.088;5.096;2022-11-14T05:34:17;6.10;99.90
65404;DHT22;52014;52.088;5.096;2022-11-14T05:36:42;6.10;99.90
65404;DHT22;52014;52.088;5.096;2022-11-14T05:39:08;6.10;99.90
65404;DHT22;52014;52.088;5.096;2022-11-14T05:41:33;6.10;99.90
65404;DHT22;52014;52.088;5.096;2022-11-14T05:43:59;6.10;99.90
65404;DHT22;52014;52.088;5.096;2022-11-14T05:46:24;6.00;99.90
65404;DHT22;52014;52.088;5.096;2022-11-14T05:48:50;6.10;99.90
65404;DHT22;52014;52.088;5.096;2022-11-14T05:51:15;6.10;99.90
65404;DHT22;52014;52.088;5.096;2022-11-14T05:53:41;6.00;99.90
65404;DHT22;52014;52.088;5.096;2022-11-14T05:56:08;6.00;99.90
65404;DHT22;52014;52.088;5.096;2022-11-14T05:58:34;6.00;99.90
65404;DHT22;52014;52.088;5.096;2022-11-14T06:01:00;6.00;99.90
65404;DHT22;52014;52.088;5.096;2022-11-14T06:03:29;6.00;99.90
65404;DHT22;52014;52.088;5.096;2022-11-14T06:05:54;6.00;99.90
65404;DHT22;52014;52.088;5.096;2022-11-14T06:08:19;6.00;99.90
65404;DHT22;52014;52.088;5.096;2022-11-14T06:10:45;6.00;99.90
65404;DHT22;52014;52.088;5.096;2022-11-14T06:13:10;6.00;99.90
65404;DHT22;52014;52.088;5.096;2022-11-14T06:15:36;6.00;99.90
65404;DHT22;52014;52.088;5.096;2022-11-14T06:18:01;5.90;99.90
65404;DHT22;52014;52.088;5.096;2022-11-14T06:20:27;5.90;99.90
65404;DHT22;52014;52.088;5.096;2022-11-14T06:22:53;5.90;99.90
65404;DHT22;52014;52.088;5.096;2022-11-14T06:25:18;5.90;99.90
65404;DHT22;52014;52.088;5.096;2022-11-14T06:27:44;5.90;99.90
65404;DHT22;52014;52.088;5.096;2022-11-14T06:30:09;5.90;99.90
65404;DHT22;52014;52.088;5.096;2022-11-14T06:32:35;5.80;99.90
65404;DHT22;52014;52.088;5.096;2022-11-14T06:35:00;5.80;99.90
65404;DHT22;52014;52.088;5.096;2022-11-14T06:37:26;5.80;99.90
65404;DHT22;52014;52.088;5.096;2022-11-14T06:39:51;5.90;99.90
65404;DHT22;52014;52.088;5.096;2022-11-14T06:42:17;5.80;99.90
65404;DHT22;52014;52.088;5.096;2022-11-14T06:44:42;5.80;99.90
65404;DHT22;52014;52.088;5.096;2022-11-14T06:47:08;5.70;99.90
65404;DHT22;52014;52.088;5.096;2022-11-14T06:49:33;5.70;99.90
65404;DHT22;52014;52.088;5.096;2022-11-14T06:51:58;5.80;99.90
65404;DHT22;52014;52.088;5.096;2022-11-14T06:54:24;5.80;99.90
65404;DHT22;52014;52.088;5.096;2022-11-14T06:56:49;5.80;99.90
65404;DHT22;52014;52.088;5.096;2022-11-14T06:59:15;5.90;99.90
65404;DHT22;52014;52.088;5.096;2022-11-14T07:01:40;5.80;99.90
65404;DHT22;52014;52.088;5.096;2022-11-14T07:04:06;5.80;99.90
65404;DHT22;52014;52.088;5.096;2022-11-14T07:06:31;5.80;99.90
65404;DHT22;52014;52.088;5.096;2022-11-14T07:08:57;5.80;99.90
65404;DHT22;52014;52.088;5.096;2022-11-14T07:11:25;5.80;99.90
65404;DHT22;52014;52.088;5.096;2022-11-14T07:13:52;5.70;99.90
65404;DHT22;52014;52.088;5.096;2022-11-14T07:16:18;5.80;99.90
65404;DHT22;52014;52.088;5.096;2022-11-14T07:18:44;5.80;99.90
65404;DHT22;52014;52.088;5.096;2022-11-14T07:21:10;5.80;99.90
65404;DHT22;52014;52.088;5.096;2022-11-14T07:23:37;5.80;99.90
65404;DHT22;52014;52.088;5.096;2022-11-14T07:26:04;5.70;99.90
65404;DHT22;52014;52.088;5.096;2022-11-14T07:28:33;5.70;99.90
65404;DHT22;52014;52.088;5.096;2022-11-14T07:31:01;5.70;99.90
65404;DHT22;52014;52.088;5.096;2022-11-14T07:33:26;5.60;99.90
65404;DHT22;52014;52.088;5.096;2022-11-14T07:35:52;5.70;99.90
65404;DHT22;52014;52.088;5.096;2022-11-14T07:38:17;5.80;99.90
65404;DHT22;52014;52.088;5.096;2022-11-14T07:40:51;5.80;99.90
65404;DHT22;52014;52.088;5.096;2022-11-14T07:43:16;5.70;99.90
65404;DHT22;52014;52.088;5.096;2022-11-14T07:45:41;5.60;99.90
65404;DHT22;52014;52.088;5.096;2022-11-14T07:48:07;5.80;99.90
65404;DHT22;52014;52.088;5.096;2022-11-14T07:50:32;5.80;99.90
65404;DHT22;52014;52.088;5.096;2022-11-14T07:52:58;5.80;99.90
65404;DHT22;52014;52.088;5.096;2022-11-14T07:55:23;5.70;99.90
65404;DHT22;52014;52.088;5.096;2022-11-14T07:57:51;5.70;99.90
65404;DHT22;52014;52.088;5.096;2022-11-14T08:00:16;5.80;99.90
65404;DHT22;52014;52.088;5.096;2022-11-14T08:02:42;5.80;99.90
65404;DHT22;52014;52.088;5.096;2022-11-14T08:05:07;5.80;99.90
65404;DHT22;52014;52.088;5.096;2022-11-14T08:07:33;5.80;99.90
65404;DHT22;52014;52.088;5.096;2022-11-14T08:09:58;5.70;99.90
65404;DHT22;52014;52.088;5.096;2022-11-14T08:12:24;5.70;99.90
65404;DHT22;52014;52.088;5.096;2022-11-14T08:14:49;5.80;99.90
65404;DHT22;52014;52.088;5.096;2022-11-14T08:17:14;5.80;99.90
65404;DHT22;52014;52.088;5.096;2022-11-14T08:19:40;5.90;99.90
65404;DHT22;52014;52.088;5.096;2022-11-14T08:22:06;5.90;99.90
65404;DHT22;52014;52.088;5.096;2022-11-14T08:24:31;6.00;99.90
65404;DHT22;52014;52.088;5.096;2022-11-14T08:26:57;5.90;99.90
65404;DHT22;52014;52.088;5.096;2022-11-14T08:29:22;5.90;99.90
65404;DHT22;52014;52.088;5.096;2022-11-14T08:31:48;6.00;99.90
65404;DHT22;52014;52.088;5.096;2022-11-14T08:34:13;6.00;99.90
65404;DHT22;52014;52.088;5.096;2022-11-14T08:36:39;6.00;99.90
65404;DHT22;52014;52.088;5.096;2022-11-14T08:39:04;6.00;99.90
65404;DHT22;52014;52.088;5.096;2022-11-14T08:41:30;6.10;99.90
65404;DHT22;52014;52.088;5.096;2022-11-14T08:43:55;6.10;99.90
65404;DHT22;52014;52.088;5.096;2022-11-14T08:46:21;6.20;99.90
65404;DHT22;52014;52.088;5.096;2022-11-14T08:48:46;6.20;99.90
65404;DHT22;52014;52.088;5.096;2022-11-14T08:51:11;6.10;99.90
65404;DHT22;52014;52.088;5.096;2022-11-14T08:53:37;6.20;99.90
65404;DHT22;52014;52.088;5.096;2022-11-14T08:56:02;6.30;99.90
65404;DHT22;52014;52.088;5.096;2022-11-14T08:58:28;6.20;99.90
65404;DHT22;52014;52.088;5.096;2022-11-14T09:00:58;6.60;99.90
65404;DHT22;52014;52.088;5.096;2022-11-14T09:03:23;6.80;99.90
65404;DHT22;52014;52.088;5.096;2022-11-14T09:05:50;7.10;99.90
65404;DHT22;52014;52.088;5.096;2022-11-14T09:08:15;7.30;99.90
65404;DHT22;52014;52.088;5.096;2022-11-14T09:10:41;7.70;99.90
65404;DHT22;52014;52.088;5.096;2022-11-14T09:13:06;7.60;99.90
65404;DHT22;52014;52.088;5.096;2022-11-14T09:15:32;7.60;99.90
65404;DHT22;52014;52.088;5.096;2022-11-14T09:17:58;7.70;99.90
65404;DHT22;52014;52.088;5.096;2022-11-14T09:20:25;7.90;99.90
65404;DHT22;52014;52.088;5.096;2022-11-14T09:22:50;8.10;99.90
65404;DHT22;52014;52.088;5.096;2022-11-14T09:25:19;8.10;99.90
65404;DHT22;52014;52.088;5.096;2022-11-14T09:27:46;8.00;99.90
65404;DHT22;52014;52.088;5.096;2022-11-14T09:30:11;7.50;99.90
65404;DHT22;52014;52.088;5.096;2022-11-14T09:32:37;7.30;99.90
65404;DHT22;52014;52.088;5.096;2022-11-14T09:35:02;7.20;99.90
65404;DHT22;52014;52.088;5.096;2022-11-14T09:37:28;7.20;99.90
65404;DHT22;52014;52.088;5.096;2022-11-14T09:39:54;7.20;99.90
65404;DHT22;52014;52.088;5.096;2022-11-14T09:44:54;7.20;99.90
65404;DHT22;52014;52.088;5.096;2022-11-14T09:47:23;7.30;99.90
65404;DHT22;52014;52.088;5.096;2022-11-14T09:49:49;7.30;99.90
65404;DHT22;52014;52.088;5.096;2022-11-14T09:54:46;7.30;99.90
65404;DHT22;52014;52.088;5.096;2022-11-14T09:57:15;7.30;99.90
65404;DHT22;52014;52.088;5.096;2022-11-14T09:59:41;7.40;99.90
65404;DHT22;52014;52.088;5.096;2022-11-14T10:02:29;7.40;99.90
65404;DHT22;52014;52.088;5.096;2022-11-14T10:05:08;7.40;99.90
65404;DHT22;52014;52.088;5.096;2022-11-14T10:10:13;7.50;99.90
65404;DHT22;52014;52.088;5.096;2022-11-14T10:17:41;7.70;99.90
65404;DHT22;52014;52.088;5.096;2022-11-14T10:20:15;7.70;99.90
65404;DHT22;52014;52.088;5.096;2022-11-14T10:25:34;7.80;99.90
65404;DHT22;52014;52.088;5.096;2022-11-14T10:31:06;7.80;99.90
65404;DHT22;52014;52.088;5.096;2022-11-14T10:36:14;8.60;99.90
65404;DHT22;52014;52.088;5.096;2022-11-14T10:38:49;8.70;99.90
65404;DHT22;52014;52.088;5.096;2022-11-14T10:41:16;8.40;99.90
65404;DHT22;52014;52.088;5.096;2022-11-14T10:43:42;8.20;99.90
65404;DHT22;52014;52.088;5.096;2022-11-14T10:46:23;8.20;99.90
65404;DHT22;52014;52.088;5.096;2022-11-14T10:48:50;8.20;99.90
65404;DHT22;52014;52.088;5.096;2022-11-14T10:51:30;8.30;99.90
65404;DHT22;52014;52.088;5.096;2022-11-14T10:54:02;8.30;99.90
65404;DHT22;52014;52.088;5.096;2022-11-14T10:56:30;8.30;99.90
65404;DHT22;52014;52.088;5.096;2022-11-14T10:58:55;8.30;99.90
65404;DHT22;52014;52.088;5.096;2022-11-14T11:01:34;8.30;99.90
65404;DHT22;52014;52.088;5.096;2022-11-14T11:04:13;8.30;99.90
65404;DHT22;52014;52.088;5.096;2022-11-14T11:06:39;8.40;99.90
65404;DHT22;52014;52.088;5.096;2022-11-14T11:09:08;8.40;99.90
65404;DHT22;52014;52.088;5.096;2022-11-14T11:11:56;8.50;99.90
65404;DHT22;52014;52.088;5.096;2022-11-14T11:14:22;8.50;99.90
65404;DHT22;52014;52.088;5.096;2022-11-14T11:16:47;8.50;99.90
65404;DHT22;52014;52.088;5.096;2022-11-14T11:21:48;8.60;99.90
65404;DHT22;52014;52.088;5.096;2022-11-14T11:24:28;8.60;99.90
65404;DHT22;52014;52.088;5.096;2022-11-14T11:29:38;8.60;99.90
65404;DHT22;52014;52.088;5.096;2022-11-14T11:32:04;8.70;99.90
65404;DHT22;52014;52.088;5.096;2022-11-14T11:34:30;8.70;99.90
65404;DHT22;52014;52.088;5.096;2022-11-14T11:36:59;8.80;99.90
65404;DHT22;52014;52.088;5.096;2022-11-14T11:39:31;8.80;99.90
65404;DHT22;52014;52.088;5.096;2022-11-14T11:41:58;8.80;99.90
65404;DHT22;52014;52.088;5.096;2022-11-14T11:44:28;8.80;99.90
65404;DHT22;52014;52.088;5.096;2022-11-14T11:46:58;8.80;99.90
65404;DHT22;52014;52.088;5.096;2022-11-14T11:49:34;8.80;99.90
65404;DHT22;52014;52.088;5.096;2022-11-14T11:52:03;8.90;99.90
65404;DHT22;52014;52.088;5.096;2022-11-14T11:54:32;8.90;99.90
65404;DHT22;52014;52.088;5.096;2022-11-14T11:57:01;8.90;99.90
65404;DHT22;52014;52.088;5.096;2022-11-14T12:02:02;8.90;99.90
65404;DHT22;52014;52.088;5.096;2022-11-14T12:04:29;8.90;99.90
65404;DHT22;52014;52.088;5.096;2022-11-14T12:07:08;8.90;99.90
65404;DHT22;52014;52.088;5.096;2022-11-14T12:09:36;8.90;99.90
65404;DHT22;52014;52.088;5.096;2022-11-14T12:12:04;8.90;99.90
65404;DHT22;52014;52.088;5.096;2022-11-14T12:14:51;9.00;99.90
65404;DHT22;52014;52.088;5.096;2022-11-14T12:17:36;9.00;99.90
65404;DHT22;52014;52.088;5.096;2022-11-14T12:23:03;8.90;99.90
65404;DHT22;52014;52.088;5.096;2022-11-14T12:30:31;8.90;99.90
65404;DHT22;52014;52.088;5.096;2022-11-14T12:33:01;8.90;99.90
65404;DHT22;52014;52.088;5.096;2022-11-14T12:35:29;9.00;99.90
65404;DHT22;52014;52.088;5.096;2022-11-14T12:37:56;9.00;99.90
65404;DHT22;52014;52.088;5.096;2022-11-14T12:40:29;8.90;99.90
65404;DHT22;52014;52.088;5.096;2022-11-14T12:42:56;9.00;99.90
65404;DHT22;52014;52.088;5.096;2022-11-14T12:50:44;9.00;99.90
65404;DHT22;52014;52.088;5.096;2022-11-14T13:01:36;9.10;99.90
65404;DHT22;52014;52.088;5.096;2022-11-14T13:06:55;9.20;99.90
65404;DHT22;52014;52.088;5.096;2022-11-14T13:09:33;9.20;99.90
65404;DHT22;52014;52.088;5.096;2022-11-14T13:15:18;9.10;99.90
65404;DHT22;52014;52.088;5.096;2022-11-14T13:18:10;9.10;99.90
65404;DHT22;52014;52.088;5.096;2022-11-14T13:21:03;9.20;99.90
65404;DHT22;52014;52.088;5.096;2022-11-14T13:33:39;8.60;99.90
65404;DHT22;52014;52.088;5.096;2022-11-14T13:36:05;8.60;99.90
65404;DHT22;52014;52.088;5.096;2022-11-14T13:41:05;8.50;99.90
65404;DHT22;52014;52.088;5.096;2022-11-14T13:51:49;8.50;99.90
65404;DHT22;52014;52.088;5.096;2022-11-14T13:54:15;8.50;99.90
65404;DHT22;52014;52.088;5.096;2022-11-14T13:57:02;8.50;99.90
65404;DHT22;52014;52.088;5.096;2022-11-14T14:04:48;8.30;99.90
65404;DHT22;52014;52.088;5.096;2022-11-14T14:07:27;8.40;99.90
65404;DHT22;52014;52.088;5.096;2022-11-14T14:12:28;8.30;99.90
65404;DHT22;52014;52.088;5.096;2022-11-14T14:25:08;8.20;99.90
65404;DHT22;52014;52.088;5.096;2022-11-14T14:30:09;8.20;99.90
65404;DHT22;52014;52.088;5.096;2022-11-14T14:32:35;8.20;99.90
65404;DHT22;52014;52.088;5.096;2022-11-14T14:35:18;8.10;99.90
65404;DHT22;52014;52.088;5.096;2022-11-14T14:37:48;8.10;99.90
65404;DHT22;52014;52.088;5.096;2022-11-14T14:40:27;8.10;99.90
65404;DHT22;52014;52.088;5.096;2022-11-14T14:42:53;8.10;99.90
65404;DHT22;52014;52.088;5.096;2022-11-14T14:45:20;8.00;99.90
65404;DHT22;52014;52.088;5.096;2022-11-14T14:47:50;8.00;99.90
65404;DHT22;52014;52.088;5.096;2022-11-14T14:50:23;8.00;99.90
65404;DHT22;52014;52.088;5.096;2022-11-14T14:52:59;8.00;99.90
65404;DHT22;52014;52.088;5.096;2022-11-14T14:55:27;8.00;99.90
65404;DHT22;52014;52.088;5.096;2022-11-14T14:57:52;7.90;99.90
65404;DHT22;52014;52.088;5.096;2022-11-14T15:00:22;8.00;99.90
65404;DHT22;52014;52.088;5.096;2022-11-14T15:02:51;7.90;99.90
65404;DHT22;52014;52.088;5.096;2022-11-14T15:05:26;7.90;99.90
65404;DHT22;52014;52.088;5.096;2022-11-14T15:07:54;7.90;99.90
65404;DHT22;52014;52.088;5.096;2022-11-14T15:10:25;7.80;99.90
65404;DHT22;52014;52.088;5.096;2022-11-14T15:12:54;7.80;99.90
65404;DHT22;52014;52.088;5.096;2022-11-14T15:15:20;7.80;99.90
65404;DHT22;52014;52.088;5.096;2022-11-14T15:17:47;7.90;99.90
65404;DHT22;52014;52.088;5.096;2022-11-14T15:20:22;7.90;99.90
65404;DHT22;52014;52.088;5.096;2022-11-14T15:25:49;7.90;99.90
65404;DHT22;52014;52.088;5.096;2022-11-14T15:28:24;7.80;99.90
65404;DHT22;52014;52.088;5.096;2022-11-14T15:30:57;7.80;99.90
65404;DHT22;52014;52.088;5.096;2022-11-14T15:33:28;7.70;99.90
65404;DHT22;52014;52.088;5.096;2022-11-14T15:36:04;7.70;99.90
65404;DHT22;52014;52.088;5.096;2022-11-14T15:38:29;7.70;99.90
65404;DHT22;52014;52.088;5.096;2022-11-14T15:43:51;7.60;99.90
65404;DHT22;52014;52.088;5.096;2022-11-14T15:46:24;7.60;99.90
65404;DHT22;52014;52.088;5.096;2022-11-14T15:48:50;7.50;99.90
65404;DHT22;52014;52.088;5.096;2022-11-14T15:51:16;7.50;99.90
65404;DHT22;52014;52.088;5.096;2022-11-14T15:53:43;7.50;99.90
65404;DHT22;52014;52.088;5.096;2022-11-14T15:56:10;7.50;99.90
65404;DHT22;52014;52.088;5.096;2022-11-14T15:58:36;7.50;99.90
65404;DHT22;52014;52.088;5.096;2022-11-14T16:01:01;7.40;99.90
65404;DHT22;52014;52.088;5.096;2022-11-14T16:03:27;7.50;99.90
65404;DHT22;52014;52.088;5.096;2022-11-14T16:05:52;7.40;99.90
65404;DHT22;52014;52.088;5.096;2022-11-14T16:08:18;7.40;99.90
65404;DHT22;52014;52.088;5.096;2022-11-14T16:10:43;7.30;99.90
65404;DHT22;52014;52.088;5.096;2022-11-14T16:13:09;7.30;99.90
65404;DHT22;52014;52.088;5.096;2022-11-14T16:15:35;7.30;99.90
65404;DHT22;52014;52.088;5.096;2022-11-14T16:18:03;7.30;99.90
65404;DHT22;52014;52.088;5.096;2022-11-14T16:20:29;7.20;99.90
65404;DHT22;52014;52.088;5.096;2022-11-14T16:22:55;7.20;99.90
65404;DHT22;52014;52.088;5.096;2022-11-14T16:27:46;7.20;99.90
65404;DHT22;52014;52.088;5.096;2022-11-14T16:30:12;7.30;99.90
65404;DHT22;52014;52.088;5.096;2022-11-14T16:32:38;7.10;99.90
65404;DHT22;52014;52.088;5.096;2022-11-14T16:35:08;7.10;99.90
65404;DHT22;52014;52.088;5.096;2022-11-14T16:37:36;7.10;99.90
65404;DHT22;52014;52.088;5.096;2022-11-14T16:40:01;7.20;99.90
65404;DHT22;52014;52.088;5.096;2022-11-14T16:42:27;7.10;99.90
65404;DHT22;52014;52.088;5.096;2022-11-14T16:44:54;7.00;99.90
65404;DHT22;52014;52.088;5.096;2022-11-14T16:47:23;7.00;99.90
65404;DHT22;52014;52.088;5.096;2022-11-14T16:49:48;7.00;99.90
65404;DHT22;52014;52.088;5.096;2022-11-14T16:52:13;7.00;99.90
65404;DHT22;52014;52.088;5.096;2022-11-14T16:54:41;7.00;99.90
65404;DHT22;52014;52.088;5.096;2022-11-14T16:57:06;7.00;99.90
65404;DHT22;52014;52.088;5.096;2022-11-14T16:59:32;7.00;99.90
65404;DHT22;52014;52.088;5.096;2022-11-14T17:01:57;7.00;99.90
65404;DHT22;52014;52.088;5.096;2022-11-14T17:04:23;7.00;99.90
65404;DHT22;52014;52.088;5.096;2022-11-14T17:06:48;7.00;99.90
65404;DHT22;52014;52.088;5.096;2022-11-14T17:09:14;6.90;99.90
65404;DHT22;52014;52.088;5.096;2022-11-14T17:11:39;7.00;99.90
65404;DHT22;52014;52.088;5.096;2022-11-14T17:14:04;7.00;99.90
65404;DHT22;52014;52.088;5.096;2022-11-14T17:16:30;6.90;99.90
65404;DHT22;52014;52.088;5.096;2022-11-14T17:18:55;6.90;99.90
65404;DHT22;52014;52.088;5.096;2022-11-14T17:21:21;6.90;99.90
65404;DHT22;52014;52.088;5.096;2022-11-14T17:23:52;6.90;99.90
65404;DHT22;52014;52.088;5.096;2022-11-14T17:26:17;6.90;99.90
65404;DHT22;52014;52.088;5.096;2022-11-14T17:28:42;6.90;99.90
65404;DHT22;52014;52.088;5.096;2022-11-14T17:31:10;6.90;99.90
65404;DHT22;52014;52.088;5.096;2022-11-14T17:33:36;6.90;99.90